sensor_id;sensor_type;location;lat;lon;timestamp;P1;durP1;ratioP1;P2;durP2;ratioP2
20988;SDS011;10653;47.052;15.410;2023-06-26T00:01:19;11.87;;;10.63;;
20988;SDS011;10653;47.052;15.410;2023-06-26T00:03:46;11.33;;;10.30;;
20988;SDS011;10653;47.052;15.410;2023-06-26T00:06:12;11.10;;;9.63;;
20988;SDS011;10653;47.052;15.410;2023-06-26T00:08:38;10.90;;;9.90;;
20988;SDS011;10653;47.052;15.410;2023-06-26T00:11:04;11.50;;;10.40;;
20988;SDS011;10653;47.052;15.410;2023-06-26T00:13:30;12.17;;;10.87;;
20988;SDS011;10653;47.052;15.410;2023-06-26T00:15:56;12.20;;;11.07;;
20988;SDS011;10653;47.052;15.410;2023-06-26T00:18:22;11.83;;;10.57;;
20988;SDS011;10653;47.052;15.410;2023-06-26T00:20:48;12.37;;;11.17;;
20988;SDS011;10653;47.052;15.410;2023-06-26T00:23:18;12.77;;;11.60;;
20988;SDS011;10653;47.052;15.410;2023-06-26T00:25:44;12.80;;;10.40;;
20988;SDS011;10653;47.052;15.410;2023-06-26T00:28:10;10.70;;;9.57;;
20988;SDS011;10653;47.052;15.410;2023-06-26T00:30:36;12.53;;;11.23;;
20988;SDS011;10653;47.052;15.410;2023-06-26T00:33:02;11.07;;;9.93;;
20988;SDS011;10653;47.052;15.410;2023-06-26T00:35:28;11.30;;;10.20;;
20988;SDS011;10653;47.052;15.410;2023-06-26T00:37:54;11.60;;;10.40;;
20988;SDS011;10653;47.052;15.410;2023-06-26T00:40:20;11.63;;;10.53;;
20988;SDS011;10653;47.052;15.410;2023-06-26T00:42:46;11.77;;;10.57;;
20988;SDS011;10653;47.052;15.410;2023-06-26T00:45:12;12.60;;;11.30;;
20988;SDS011;10653;47.052;15.410;2023-06-26T00:47:38;12.73;;;11.43;;
20988;SDS011;10653;47.052;15.410;2023-06-26T00:50:04;11.83;;;10.73;;
20988;SDS011;10653;47.052;15.410;2023-06-26T00:52:31;12.57;;;10.87;;
20988;SDS011;10653;47.052;15.410;2023-06-26T00:54:57;12.43;;;11.13;;
20988;SDS011;10653;47.052;15.410;2023-06-26T00:57:23;10.80;;;9.70;;
20988;SDS011;10653;47.052;15.410;2023-06-26T00:59:49;12.07;;;10.77;;
20988;SDS011;10653;47.052;15.410;2023-06-26T01:02:16;12.13;;;10.97;;
20988;SDS011;10653;47.052;15.410;2023-06-26T01:04:49;11.60;;;10.60;;
20988;SDS011;10653;47.052;15.410;2023-06-26T01:07:15;11.57;;;10.27;;
20988;SDS011;10653;47.052;15.410;2023-06-26T01:09:44;12.17;;;10.93;;
20988;SDS011;10653;47.052;15.410;2023-06-26T01:12:10;11.80;;;10.53;;
20988;SDS011;10653;47.052;15.410;2023-06-26T01:14:36;11.60;;;10.50;;
20988;SDS011;10653;47.052;15.410;2023-06-26T01:17:02;14.50;;;12.20;;
20988;SDS011;10653;47.052;15.410;2023-06-26T01:19:30;11.80;;;10.63;;
20988;SDS011;10653;47.052;15.410;2023-06-26T01:22:00;15.10;;;11.60;;
20988;SDS011;10653;47.052;15.410;2023-06-26T01:24:31;12.30;;;11.00;;
20988;SDS011;10653;47.052;15.410;2023-06-26T01:26:58;11.97;;;10.80;;
20988;SDS011;10653;47.052;15.410;2023-06-26T01:29:25;14.30;;;11.80;;
20988;SDS011;10653;47.052;15.410;2023-06-26T01:31:51;12.00;;;10.90;;
20988;SDS011;10653;47.052;15.410;2023-06-26T01:34:17;13.93;;;12.53;;
20988;SDS011;10653;47.052;15.410;2023-06-26T01:36:44;13.90;;;12.57;;
20988;SDS011;10653;47.052;15.410;2023-06-26T01:39:14;14.03;;;12.30;;
20988;SDS011;10653;47.052;15.410;2023-06-26T01:41:40;12.73;;;11.40;;
20988;SDS011;10653;47.052;15.410;2023-06-26T01:51:30;12.17;;;11.03;;
20988;SDS011;10653;47.052;15.410;2023-06-26T01:53:58;12.87;;;11.67;;
20988;SDS011;10653;47.052;15.410;2023-06-26T01:56:24;12.43;;;11.17;;
20988;SDS011;10653;47.052;15.410;2023-06-26T01:58:51;13.43;;;12.03;;
20988;SDS011;10653;47.052;15.410;2023-06-26T02:01:19;13.00;;;11.80;;
20988;SDS011;10653;47.052;15.410;2023-06-26T02:03:46;11.93;;;10.80;;
20988;SDS011;10653;47.052;15.410;2023-06-26T02:06:12;13.07;;;11.67;;
20988;SDS011;10653;47.052;15.410;2023-06-26T02:08:38;14.00;;;12.50;;
20988;SDS011;10653;47.052;15.410;2023-06-26T02:11:04;15.93;;;14.43;;
20988;SDS011;10653;47.052;15.410;2023-06-26T02:13:30;16.23;;;14.47;;
20988;SDS011;10653;47.052;15.410;2023-06-26T02:15:56;13.17;;;11.87;;
20988;SDS011;10653;47.052;15.410;2023-06-26T02:18:22;13.07;;;11.87;;
20988;SDS011;10653;47.052;15.410;2023-06-26T02:20:49;13.70;;;12.23;;
20988;SDS011;10653;47.052;15.410;2023-06-26T02:23:15;13.17;;;11.90;;
20988;SDS011;10653;47.052;15.410;2023-06-26T02:25:41;13.33;;;12.03;;
20988;SDS011;10653;47.052;15.410;2023-06-26T02:28:07;14.27;;;12.87;;
20988;SDS011;10653;47.052;15.410;2023-06-26T02:30:33;13.30;;;11.90;;
20988;SDS011;10653;47.052;15.410;2023-06-26T02:32:59;13.07;;;11.87;;
20988;SDS011;10653;47.052;15.410;2023-06-26T02:35:25;13.33;;;11.90;;
20988;SDS011;10653;47.052;15.410;2023-06-26T02:37:51;12.20;;;11.00;;
20988;SDS011;10653;47.052;15.410;2023-06-26T02:40:17;12.80;;;11.50;;
20988;SDS011;10653;47.052;15.410;2023-06-26T02:42:43;13.23;;;11.93;;
20988;SDS011;10653;47.052;15.410;2023-06-26T02:45:09;12.90;;;11.60;;
20988;SDS011;10653;47.052;15.410;2023-06-26T02:47:35;13.00;;;11.07;;
20988;SDS011;10653;47.052;15.410;2023-06-26T02:50:04;15.90;;;13.50;;
20988;SDS011;10653;47.052;15.410;2023-06-26T02:52:30;15.03;;;12.70;;
20988;SDS011;10653;47.052;15.410;2023-06-26T02:54:56;12.33;;;11.00;;
20988;SDS011;10653;47.052;15.410;2023-06-26T02:57:22;14.20;;;12.10;;
20988;SDS011;10653;47.052;15.410;2023-06-26T02:59:48;12.53;;;11.33;;
20988;SDS011;10653;47.052;15.410;2023-06-26T03:02:14;13.27;;;11.80;;
20988;SDS011;10653;47.052;15.410;2023-06-26T03:04:40;14.57;;;12.50;;
20988;SDS011;10653;47.052;15.410;2023-06-26T03:07:08;12.67;;;11.47;;
20988;SDS011;10653;47.052;15.410;2023-06-26T03:09:34;12.30;;;11.10;;
20988;SDS011;10653;47.052;15.410;2023-06-26T03:12:00;14.50;;;12.27;;
20988;SDS011;10653;47.052;15.410;2023-06-26T03:14:26;14.27;;;12.77;;
20988;SDS011;10653;47.052;15.410;2023-06-26T03:16:53;13.23;;;11.93;;
20988;SDS011;10653;47.052;15.410;2023-06-26T03:19:22;11.63;;;10.50;;
20988;SDS011;10653;47.052;15.410;2023-06-26T03:21:48;13.70;;;12.40;;
20988;SDS011;10653;47.052;15.410;2023-06-26T03:24:15;13.40;;;12.20;;
20988;SDS011;10653;47.052;15.410;2023-06-26T03:26:41;13.67;;;12.37;;
20988;SDS011;10653;47.052;15.410;2023-06-26T03:29:07;14.20;;;12.80;;
20988;SDS011;10653;47.052;15.410;2023-06-26T03:31:32;12.67;;;11.37;;
20988;SDS011;10653;47.052;15.410;2023-06-26T03:33:58;14.13;;;12.83;;
20988;SDS011;10653;47.052;15.410;2023-06-26T03:36:24;14.10;;;12.60;;
20988;SDS011;10653;47.052;15.410;2023-06-26T03:38:50;13.70;;;12.30;;
20988;SDS011;10653;47.052;15.410;2023-06-26T03:41:21;14.00;;;12.60;;
20988;SDS011;10653;47.052;15.410;2023-06-26T03:43:47;13.50;;;12.10;;
20988;SDS011;10653;47.052;15.410;2023-06-26T03:46:13;14.93;;;13.43;;
20988;SDS011;10653;47.052;15.410;2023-06-26T03:48:39;14.40;;;12.90;;
20988;SDS011;10653;47.052;15.410;2023-06-26T03:51:05;13.90;;;12.50;;
20988;SDS011;10653;47.052;15.410;2023-06-26T03:53:32;13.80;;;12.47;;
20988;SDS011;10653;47.052;15.410;2023-06-26T03:55:58;14.73;;;13.23;;
20988;SDS011;10653;47.052;15.410;2023-06-26T03:58:24;14.00;;;12.53;;
20988;SDS011;10653;47.052;15.410;2023-06-26T04:00:50;19.20;;;13.70;;
20988;SDS011;10653;47.052;15.410;2023-06-26T04:03:16;15.60;;;13.90;;
20988;SDS011;10653;47.052;15.410;2023-06-26T04:05:42;14.97;;;13.50;;
20988;SDS011;10653;47.052;15.410;2023-06-26T04:08:09;17.20;;;15.37;;
20988;SDS011;10653;47.052;15.410;2023-06-26T04:10:35;14.60;;;13.13;;
20988;SDS011;10653;47.052;15.410;2023-06-26T04:13:04;17.03;;;14.07;;
20988;SDS011;10653;47.052;15.410;2023-06-26T04:15:30;14.47;;;13.10;;
20988;SDS011;10653;47.052;15.410;2023-06-26T04:17:56;15.07;;;12.67;;
20988;SDS011;10653;47.052;15.410;2023-06-26T04:20:22;13.97;;;12.57;;
20988;SDS011;10653;47.052;15.410;2023-06-26T04:22:48;16.07;;;14.50;;
20988;SDS011;10653;47.052;15.410;2023-06-26T04:25:14;14.77;;;13.33;;
20988;SDS011;10653;47.052;15.410;2023-06-26T04:27:40;14.80;;;13.33;;
20988;SDS011;10653;47.052;15.410;2023-06-26T04:30:06;14.07;;;12.67;;
20988;SDS011;10653;47.052;15.410;2023-06-26T04:32:32;14.60;;;13.10;;
20988;SDS011;10653;47.052;15.410;2023-06-26T04:34:59;16.93;;;13.20;;
20988;SDS011;10653;47.052;15.410;2023-06-26T04:37:25;14.93;;;13.40;;
20988;SDS011;10653;47.052;15.410;2023-06-26T04:39:51;15.57;;;13.87;;
20988;SDS011;10653;47.052;15.410;2023-06-26T04:42:17;14.50;;;13.03;;
20988;SDS011;10653;47.052;15.410;2023-06-26T04:44:46;15.47;;;13.83;;
20988;SDS011;10653;47.052;15.410;2023-06-26T04:47:12;13.50;;;12.10;;
20988;SDS011;10653;47.052;15.410;2023-06-26T04:49:41;14.07;;;12.57;;
20988;SDS011;10653;47.052;15.410;2023-06-26T04:52:10;15.50;;;12.80;;
20988;SDS011;10653;47.052;15.410;2023-06-26T04:54:38;15.03;;;12.73;;
20988;SDS011;10653;47.052;15.410;2023-06-26T04:57:04;15.33;;;13.57;;
20988;SDS011;10653;47.052;15.410;2023-06-26T04:59:30;13.33;;;12.00;;
20988;SDS011;10653;47.052;15.410;2023-06-26T05:01:56;14.20;;;12.70;;
20988;SDS011;10653;47.052;15.410;2023-06-26T05:04:22;14.53;;;13.13;;
20988;SDS011;10653;47.052;15.410;2023-06-26T05:06:49;15.13;;;13.00;;
20988;SDS011;10653;47.052;15.410;2023-06-26T05:09:15;13.60;;;12.30;;
20988;SDS011;10653;47.052;15.410;2023-06-26T05:11:41;13.73;;;11.47;;
20988;SDS011;10653;47.052;15.410;2023-06-26T05:14:07;17.40;;;14.03;;
20988;SDS011;10653;47.052;15.410;2023-06-26T05:16:34;13.17;;;11.70;;
20988;SDS011;10653;47.052;15.410;2023-06-26T05:19:00;13.53;;;12.20;;
20988;SDS011;10653;47.052;15.410;2023-06-26T05:21:27;13.70;;;12.30;;
20988;SDS011;10653;47.052;15.410;2023-06-26T05:23:53;14.47;;;12.97;;
20988;SDS011;10653;47.052;15.410;2023-06-26T05:26:21;14.53;;;13.03;;
20988;SDS011;10653;47.052;15.410;2023-06-26T05:28:47;18.43;;;13.53;;
20988;SDS011;10653;47.052;15.410;2023-06-26T05:31:14;15.30;;;13.07;;
20988;SDS011;10653;47.052;15.410;2023-06-26T05:33:41;16.50;;;13.50;;
20988;SDS011;10653;47.052;15.410;2023-06-26T05:36:09;14.07;;;12.60;;
20988;SDS011;10653;47.052;15.410;2023-06-26T05:38:36;14.83;;;13.33;;
20988;SDS011;10653;47.052;15.410;2023-06-26T05:41:02;18.40;;;13.50;;
20988;SDS011;10653;47.052;15.410;2023-06-26T05:43:28;25.33;;;17.27;;
20988;SDS011;10653;47.052;15.410;2023-06-26T05:45:54;17.10;;;13.70;;
20988;SDS011;10653;47.052;15.410;2023-06-26T05:48:20;17.17;;;12.57;;
20988;SDS011;10653;47.052;15.410;2023-06-26T05:50:46;12.97;;;11.30;;
20988;SDS011;10653;47.052;15.410;2023-06-26T05:53:12;13.73;;;11.07;;
20988;SDS011;10653;47.052;15.410;2023-06-26T05:55:38;14.00;;;12.00;;
20988;SDS011;10653;47.052;15.410;2023-06-26T05:58:06;14.20;;;12.60;;
20988;SDS011;10653;47.052;15.410;2023-06-26T06:00:32;13.67;;;12.20;;
20988;SDS011;10653;47.052;15.410;2023-06-26T06:02:58;12.63;;;11.33;;
20988;SDS011;10653;47.052;15.410;2023-06-26T06:05:24;14.93;;;12.70;;
20988;SDS011;10653;47.052;15.410;2023-06-26T06:07:50;14.07;;;12.03;;
20988;SDS011;10653;47.052;15.410;2023-06-26T06:10:17;14.57;;;11.63;;
20988;SDS011;10653;47.052;15.410;2023-06-26T06:12:43;14.00;;;12.60;;
20988;SDS011;10653;47.052;15.410;2023-06-26T06:15:09;14.23;;;12.73;;
20988;SDS011;10653;47.052;15.410;2023-06-26T06:17:35;15.33;;;11.40;;
20988;SDS011;10653;47.052;15.410;2023-06-26T06:20:01;14.83;;;12.93;;
20988;SDS011;10653;47.052;15.410;2023-06-26T06:22:27;15.10;;;12.00;;
20988;SDS011;10653;47.052;15.410;2023-06-26T06:24:53;13.43;;;11.97;;
20988;SDS011;10653;47.052;15.410;2023-06-26T06:27:19;13.37;;;11.97;;
20988;SDS011;10653;47.052;15.410;2023-06-26T06:29:45;12.83;;;10.40;;
20988;SDS011;10653;47.052;15.410;2023-06-26T06:32:11;11.90;;;10.80;;
20988;SDS011;10653;47.052;15.410;2023-06-26T06:34:37;11.90;;;10.70;;
20988;SDS011;10653;47.052;15.410;2023-06-26T06:37:03;11.90;;;10.80;;
20988;SDS011;10653;47.052;15.410;2023-06-26T06:39:29;17.00;;;10.60;;
20988;SDS011;10653;47.052;15.410;2023-06-26T06:41:55;11.93;;;10.30;;
20988;SDS011;10653;47.052;15.410;2023-06-26T06:44:21;10.63;;;9.50;;
20988;SDS011;10653;47.052;15.410;2023-06-26T06:46:48;12.60;;;8.97;;
20988;SDS011;10653;47.052;15.410;2023-06-26T06:49:14;11.20;;;10.10;;
20988;SDS011;10653;47.052;15.410;2023-06-26T06:51:40;12.17;;;9.90;;
20988;SDS011;10653;47.052;15.410;2023-06-26T06:54:06;12.40;;;10.90;;
20988;SDS011;10653;47.052;15.410;2023-06-26T06:56:32;10.73;;;9.60;;
20988;SDS011;10653;47.052;15.410;2023-06-26T06:58:58;11.13;;;9.77;;
20988;SDS011;10653;47.052;15.410;2023-06-26T07:01:24;11.63;;;10.40;;
20988;SDS011;10653;47.052;15.410;2023-06-26T07:03:50;10.27;;;9.17;;
20988;SDS011;10653;47.052;15.410;2023-06-26T07:06:16;12.90;;;10.80;;
20988;SDS011;10653;47.052;15.410;2023-06-26T07:08:42;12.40;;;10.50;;
20988;SDS011;10653;47.052;15.410;2023-06-26T07:11:08;12.43;;;11.13;;
20988;SDS011;10653;47.052;15.410;2023-06-26T07:13:34;16.70;;;11.40;;
20988;SDS011;10653;47.052;15.410;2023-06-26T07:16:00;12.60;;;10.47;;
20988;SDS011;10653;47.052;15.410;2023-06-26T07:18:26;11.67;;;10.47;;
20988;SDS011;10653;47.052;15.410;2023-06-26T07:20:52;12.47;;;11.00;;
20988;SDS011;10653;47.052;15.410;2023-06-26T07:23:18;11.30;;;9.63;;
20988;SDS011;10653;47.052;15.410;2023-06-26T07:25:44;11.50;;;10.40;;
20988;SDS011;10653;47.052;15.410;2023-06-26T07:28:10;12.13;;;9.70;;
20988;SDS011;10653;47.052;15.410;2023-06-26T07:30:37;11.60;;;10.40;;
20988;SDS011;10653;47.052;15.410;2023-06-26T07:33:03;11.47;;;10.33;;
20988;SDS011;10653;47.052;15.410;2023-06-26T07:35:29;11.37;;;10.17;;
20988;SDS011;10653;47.052;15.410;2023-06-26T07:37:55;10.33;;;9.33;;
20988;SDS011;10653;47.052;15.410;2023-06-26T07:40:21;11.40;;;10.00;;
20988;SDS011;10653;47.052;15.410;2023-06-26T07:42:47;10.47;;;9.47;;
20988;SDS011;10653;47.052;15.410;2023-06-26T07:45:14;11.37;;;8.97;;
20988;SDS011;10653;47.052;15.410;2023-06-26T07:47:40;9.90;;;8.90;;
20988;SDS011;10653;47.052;15.410;2023-06-26T07:50:06;11.17;;;8.93;;
20988;SDS011;10653;47.052;15.410;2023-06-26T07:52:32;11.77;;;10.60;;
20988;SDS011;10653;47.052;15.410;2023-06-26T07:54:58;12.73;;;9.40;;
20988;SDS011;10653;47.052;15.410;2023-06-26T07:57:24;9.73;;;8.87;;
20988;SDS011;10653;47.052;15.410;2023-06-26T07:59:50;9.43;;;8.63;;
20988;SDS011;10653;47.052;15.410;2023-06-26T08:02:16;12.07;;;9.60;;
20988;SDS011;10653;47.052;15.410;2023-06-26T08:04:43;11.60;;;9.17;;
20988;SDS011;10653;47.052;15.410;2023-06-26T08:07:09;11.67;;;9.90;;
20988;SDS011;10653;47.052;15.410;2023-06-26T08:09:35;11.03;;;9.93;;
20988;SDS011;10653;47.052;15.410;2023-06-26T08:12:01;10.70;;;9.70;;
20988;SDS011;10653;47.052;15.410;2023-06-26T08:14:28;11.97;;;10.87;;
20988;SDS011;10653;47.052;15.410;2023-06-26T08:16:54;11.63;;;10.43;;
20988;SDS011;10653;47.052;15.410;2023-06-26T08:19:20;12.23;;;11.13;;
20988;SDS011;10653;47.052;15.410;2023-06-26T08:21:46;11.37;;;10.17;;
20988;SDS011;10653;47.052;15.410;2023-06-26T08:24:12;11.63;;;10.23;;
20988;SDS011;10653;47.052;15.410;2023-06-26T08:26:41;12.10;;;11.00;;
20988;SDS011;10653;47.052;15.410;2023-06-26T08:29:07;13.13;;;11.73;;
20988;SDS011;10653;47.052;15.410;2023-06-26T08:31:33;11.77;;;10.57;;
20988;SDS011;10653;47.052;15.410;2023-06-26T08:34:00;12.90;;;10.70;;
20988;SDS011;10653;47.052;15.410;2023-06-26T08:36:26;11.50;;;10.30;;
20988;SDS011;10653;47.052;15.410;2023-06-26T08:38:52;11.07;;;10.03;;
20988;SDS011;10653;47.052;15.410;2023-06-26T08:41:18;11.37;;;10.33;;
20988;SDS011;10653;47.052;15.410;2023-06-26T08:43:45;11.50;;;10.30;;
20988;SDS011;10653;47.052;15.410;2023-06-26T08:46:11;11.10;;;10.00;;
20988;SDS011;10653;47.052;15.410;2023-06-26T08:48:37;10.87;;;9.87;;
20988;SDS011;10653;47.052;15.410;2023-06-26T08:51:05;11.23;;;10.13;;
20988;SDS011;10653;47.052;15.410;2023-06-26T08:53:40;12.07;;;10.93;;
20988;SDS011;10653;47.052;15.410;2023-06-26T08:56:09;11.57;;;10.47;;
20988;SDS011;10653;47.052;15.410;2023-06-26T08:58:36;15.07;;;11.67;;
20988;SDS011;10653;47.052;15.410;2023-06-26T09:01:03;12.73;;;11.50;;
20988;SDS011;10653;47.052;15.410;2023-06-26T09:03:30;11.40;;;10.23;;
20988;SDS011;10653;47.052;15.410;2023-06-26T09:05:57;11.70;;;10.67;;
20988;SDS011;10653;47.052;15.410;2023-06-26T09:08:23;11.10;;;10.10;;
20988;SDS011;10653;47.052;15.410;2023-06-26T09:10:49;11.70;;;10.50;;
20988;SDS011;10653;47.052;15.410;2023-06-26T09:13:15;10.03;;;9.13;;
20988;SDS011;10653;47.052;15.410;2023-06-26T09:15:45;11.17;;;10.07;;
20988;SDS011;10653;47.052;15.410;2023-06-26T09:18:11;11.00;;;10.10;;
20988;SDS011;10653;47.052;15.410;2023-06-26T09:20:37;11.43;;;10.40;;
20988;SDS011;10653;47.052;15.410;2023-06-26T09:23:03;11.37;;;10.40;;
20988;SDS011;10653;47.052;15.410;2023-06-26T09:25:29;12.20;;;11.00;;
20988;SDS011;10653;47.052;15.410;2023-06-26T09:27:56;13.03;;;11.87;;
20988;SDS011;10653;47.052;15.410;2023-06-26T09:30:22;11.83;;;10.67;;
20988;SDS011;10653;47.052;15.410;2023-06-26T09:32:48;11.53;;;10.33;;
20988;SDS011;10653;47.052;15.410;2023-06-26T09:35:19;13.13;;;11.83;;
20988;SDS011;10653;47.052;15.410;2023-06-26T09:37:45;11.63;;;10.43;;
20988;SDS011;10653;47.052;15.410;2023-06-26T09:40:11;13.43;;;12.13;;
20988;SDS011;10653;47.052;15.410;2023-06-26T09:42:37;11.87;;;10.77;;
20988;SDS011;10653;47.052;15.410;2023-06-26T09:45:03;11.90;;;10.53;;
20988;SDS011;10653;47.052;15.410;2023-06-26T09:47:32;11.77;;;10.67;;
20988;SDS011;10653;47.052;15.410;2023-06-26T09:50:02;14.20;;;12.20;;
20988;SDS011;10653;47.052;15.410;2023-06-26T09:52:28;12.47;;;11.27;;
20988;SDS011;10653;47.052;15.410;2023-06-26T09:55:09;10.90;;;9.90;;
20988;SDS011;10653;47.052;15.410;2023-06-26T09:57:35;10.27;;;9.27;;
20988;SDS011;10653;47.052;15.410;2023-06-26T10:00:02;10.23;;;9.23;;
20988;SDS011;10653;47.052;15.410;2023-06-26T10:02:29;10.27;;;9.13;;
20988;SDS011;10653;47.052;15.410;2023-06-26T10:04:55;9.33;;;8.40;;
20988;SDS011;10653;47.052;15.410;2023-06-26T10:07:21;9.00;;;8.20;;
20988;SDS011;10653;47.052;15.410;2023-06-26T10:09:48;11.70;;;10.60;;
20988;SDS011;10653;47.052;15.410;2023-06-26T10:14:42;11.17;;;10.07;;
20988;SDS011;10653;47.052;15.410;2023-06-26T10:17:13;11.80;;;10.13;;
20988;SDS011;10653;47.052;15.410;2023-06-26T10:19:41;11.47;;;10.47;;
20988;SDS011;10653;47.052;15.410;2023-06-26T10:22:09;11.30;;;10.30;;
20988;SDS011;10653;47.052;15.410;2023-06-26T10:24:36;11.20;;;9.80;;
20988;SDS011;10653;47.052;15.410;2023-06-26T10:27:03;10.90;;;9.90;;
20988;SDS011;10653;47.052;15.410;2023-06-26T10:29:30;10.30;;;9.30;;
20988;SDS011;10653;47.052;15.410;2023-06-26T10:31:58;11.63;;;10.63;;
20988;SDS011;10653;47.052;15.410;2023-06-26T10:34:24;11.07;;;10.00;;
20988;SDS011;10653;47.052;15.410;2023-06-26T10:37:00;11.50;;;10.50;;
20988;SDS011;10653;47.052;15.410;2023-06-26T10:39:26;11.00;;;9.90;;
20988;SDS011;10653;47.052;15.410;2023-06-26T10:41:55;10.37;;;9.27;;
20988;SDS011;10653;47.052;15.410;2023-06-26T10:44:40;12.43;;;11.23;;
20988;SDS011;10653;47.052;15.410;2023-06-26T10:47:07;14.00;;;10.83;;
20988;SDS011;10653;47.052;15.410;2023-06-26T10:49:36;11.83;;;10.83;;
20988;SDS011;10653;47.052;15.410;2023-06-26T10:52:07;10.93;;;9.90;;
20988;SDS011;10653;47.052;15.410;2023-06-26T10:54:33;11.47;;;10.30;;
20988;SDS011;10653;47.052;15.410;2023-06-26T10:56:59;10.23;;;9.23;;
20988;SDS011;10653;47.052;15.410;2023-06-26T10:59:27;10.83;;;9.93;;
20988;SDS011;10653;47.052;15.410;2023-06-26T11:02:04;11.30;;;10.27;;
20988;SDS011;10653;47.052;15.410;2023-06-26T11:10:02;10.77;;;9.70;;
20988;SDS011;10653;47.052;15.410;2023-06-26T11:15:03;10.40;;;9.40;;
20988;SDS011;10653;47.052;15.410;2023-06-26T11:17:29;10.33;;;9.23;;
20988;SDS011;10653;47.052;15.410;2023-06-26T11:19:55;9.83;;;8.93;;
20988;SDS011;10653;47.052;15.410;2023-06-26T11:22:21;10.27;;;9.27;;
20988;SDS011;10653;47.052;15.410;2023-06-26T11:24:48;10.20;;;9.30;;
20988;SDS011;10653;47.052;15.410;2023-06-26T11:27:14;10.00;;;9.10;;
20988;SDS011;10653;47.052;15.410;2023-06-26T11:29:46;11.47;;;10.37;;
20988;SDS011;10653;47.052;15.410;2023-06-26T11:32:13;9.60;;;8.70;;
20988;SDS011;10653;47.052;15.410;2023-06-26T11:34:39;9.27;;;8.37;;
20988;SDS011;10653;47.052;15.410;2023-06-26T11:37:07;9.80;;;8.80;;
20988;SDS011;10653;47.052;15.410;2023-06-26T11:39:34;9.70;;;8.80;;
20988;SDS011;10653;47.052;15.410;2023-06-26T11:42:00;11.97;;;10.83;;
20988;SDS011;10653;47.052;15.410;2023-06-26T11:44:30;10.60;;;9.63;;
20988;SDS011;10653;47.052;15.410;2023-06-26T11:46:56;9.60;;;8.70;;
20988;SDS011;10653;47.052;15.410;2023-06-26T11:49:23;13.63;;;9.57;;
20988;SDS011;10653;47.052;15.410;2023-06-26T11:51:52;12.00;;;10.13;;
20988;SDS011;10653;47.052;15.410;2023-06-26T11:54:29;11.27;;;10.17;;
20988;SDS011;10653;47.052;15.410;2023-06-26T11:56:56;10.40;;;9.50;;
20988;SDS011;10653;47.052;15.410;2023-06-26T11:59:22;9.10;;;8.30;;
20988;SDS011;10653;47.052;15.410;2023-06-26T12:01:49;10.70;;;9.70;;
20988;SDS011;10653;47.052;15.410;2023-06-26T12:04:16;9.80;;;8.80;;
20988;SDS011;10653;47.052;15.410;2023-06-26T12:06:47;9.57;;;8.67;;
20988;SDS011;10653;47.052;15.410;2023-06-26T12:09:14;9.00;;;8.30;;
20988;SDS011;10653;47.052;15.410;2023-06-26T12:11:41;8.73;;;8.03;;
20988;SDS011;10653;47.052;15.410;2023-06-26T12:14:08;9.87;;;8.97;;
20988;SDS011;10653;47.052;15.410;2023-06-26T12:16:34;9.87;;;8.97;;
20988;SDS011;10653;47.052;15.410;2023-06-26T12:19:04;9.00;;;8.20;;
20988;SDS011;10653;47.052;15.410;2023-06-26T12:24:02;9.83;;;8.93;;
20988;SDS011;10653;47.052;15.410;2023-06-26T12:26:29;8.20;;;7.50;;
20988;SDS011;10653;47.052;15.410;2023-06-26T12:29:04;9.40;;;8.60;;
20988;SDS011;10653;47.052;15.410;2023-06-26T12:31:30;9.10;;;8.30;;
20988;SDS011;10653;47.052;15.410;2023-06-26T12:33:57;10.03;;;9.03;;
20988;SDS011;10653;47.052;15.410;2023-06-26T12:36:23;9.93;;;8.90;;
20988;SDS011;10653;47.052;15.410;2023-06-26T12:38:49;8.73;;;7.93;;
20988;SDS011;10653;47.052;15.410;2023-06-26T12:41:15;8.80;;;8.00;;
20988;SDS011;10653;47.052;15.410;2023-06-26T12:43:42;8.47;;;7.77;;
20988;SDS011;10653;47.052;15.410;2023-06-26T12:46:08;7.90;;;7.20;;
20988;SDS011;10653;47.052;15.410;2023-06-26T12:51:10;9.37;;;8.57;;
20988;SDS011;10653;47.052;15.410;2023-06-26T12:53:37;8.57;;;7.87;;
20988;SDS011;10653;47.052;15.410;2023-06-26T12:56:05;10.07;;;9.27;;
20988;SDS011;10653;47.052;15.410;2023-06-26T12:58:31;8.97;;;8.17;;
20988;SDS011;10653;47.052;15.410;2023-06-26T13:00:57;9.03;;;8.23;;
20988;SDS011;10653;47.052;15.410;2023-06-26T13:03:23;9.33;;;8.50;;
20988;SDS011;10653;47.052;15.410;2023-06-26T13:05:49;9.00;;;8.20;;
20988;SDS011;10653;47.052;15.410;2023-06-26T13:08:16;10.60;;;9.23;;
20988;SDS011;10653;47.052;15.410;2023-06-26T13:10:43;8.90;;;8.00;;
20988;SDS011;10653;47.052;15.410;2023-06-26T13:13:10;8.63;;;7.90;;
20988;SDS011;10653;47.052;15.410;2023-06-26T13:15:36;8.20;;;7.60;;
20988;SDS011;10653;47.052;15.410;2023-06-26T13:18:02;9.40;;;8.50;;
20988;SDS011;10653;47.052;15.410;2023-06-26T13:20:28;8.90;;;8.10;;
20988;SDS011;10653;47.052;15.410;2023-06-26T13:22:54;8.30;;;7.50;;
20988;SDS011;10653;47.052;15.410;2023-06-26T13:25:21;10.20;;;8.63;;
20988;SDS011;10653;47.052;15.410;2023-06-26T13:27:47;10.30;;;9.00;;
20988;SDS011;10653;47.052;15.410;2023-06-26T13:30:14;9.00;;;8.20;;
20988;SDS011;10653;47.052;15.410;2023-06-26T13:32:41;9.30;;;8.50;;
20988;SDS011;10653;47.052;15.410;2023-06-26T13:35:07;9.27;;;8.40;;
20988;SDS011;10653;47.052;15.410;2023-06-26T13:37:34;10.10;;;9.20;;
20988;SDS011;10653;47.052;15.410;2023-06-26T13:40:01;8.67;;;7.87;;
20988;SDS011;10653;47.052;15.410;2023-06-26T13:42:28;8.37;;;7.57;;
20988;SDS011;10653;47.052;15.410;2023-06-26T13:44:54;9.67;;;8.57;;
20988;SDS011;10653;47.052;15.410;2023-06-26T13:47:20;9.03;;;8.33;;
20988;SDS011;10653;47.052;15.410;2023-06-26T13:49:46;8.80;;;8.10;;
20988;SDS011;10653;47.052;15.410;2023-06-26T13:52:12;9.20;;;8.30;;
20988;SDS011;10653;47.052;15.410;2023-06-26T13:54:39;10.57;;;9.67;;
20988;SDS011;10653;47.052;15.410;2023-06-26T13:57:06;8.90;;;8.13;;
20988;SDS011;10653;47.052;15.410;2023-06-26T13:59:33;8.67;;;7.97;;
20988;SDS011;10653;47.052;15.410;2023-06-26T14:01:59;8.43;;;7.73;;
20988;SDS011;10653;47.052;15.410;2023-06-26T14:04:25;9.70;;;8.90;;
20988;SDS011;10653;47.052;15.410;2023-06-26T14:06:52;9.73;;;8.83;;
20988;SDS011;10653;47.052;15.410;2023-06-26T14:09:18;9.30;;;8.50;;
20988;SDS011;10653;47.052;15.410;2023-06-26T14:11:44;10.33;;;9.33;;
20988;SDS011;10653;47.052;15.410;2023-06-26T14:14:10;8.33;;;7.63;;
20988;SDS011;10653;47.052;15.410;2023-06-26T14:16:36;8.77;;;7.90;;
20988;SDS011;10653;47.052;15.410;2023-06-26T14:19:05;9.00;;;8.10;;
20988;SDS011;10653;47.052;15.410;2023-06-26T14:21:31;9.40;;;8.50;;
20988;SDS011;10653;47.052;15.410;2023-06-26T14:23:58;8.80;;;8.10;;
20988;SDS011;10653;47.052;15.410;2023-06-26T14:26:24;9.37;;;8.47;;
20988;SDS011;10653;47.052;15.410;2023-06-26T14:28:50;9.97;;;9.07;;
20988;SDS011;10653;47.052;15.410;2023-06-26T14:31:16;8.53;;;7.73;;
20988;SDS011;10653;47.052;15.410;2023-06-26T14:33:42;9.10;;;7.60;;
20988;SDS011;10653;47.052;15.410;2023-06-26T14:36:08;8.33;;;7.50;;